sensor_id;sensor_type;location;lat;lon;timestamp;pressure;altitude;pressure_sealevel;temperature;humidity
74834;BME280;63361;52.384;20.930;2024-02-28T22:25:04;101256.00;;;6.08;100.00
74834;BME280;63361;52.384;20.930;2024-02-28T22:27:30;101261.38;;;6.08;100.00
74834;BME280;63361;52.384;20.930;2024-02-28T22:29:55;101246.88;;;5.97;100.00
74834;BME280;63361;52.384;20.930;2024-02-28T22:32:20;101248.94;;;6.25;100.00
74834;BME280;63361;52.384;20.930;2024-02-28T22:34:46;101254.16;;;6.20;100.00
74834;BME280;63361;52.384;20.930;2024-02-28T22:37:11;101255.00;;;6.32;100.00
74834;BME280;63361;52.384;20.930;2024-02-28T22:39:36;101257.31;;;6.17;100.00
74834;BME280;63361;52.384;20.930;2024-02-28T22:42:02;101260.72;;;6.24;100.00
74834;BME280;63361;52.384;20.930;2024-02-28T22:44:29;101247.91;;;6.26;100.00
74834;BME280;63361;52.384;20.930;2024-02-28T22:46:55;101258.84;;;6.24;100.00
74834;BME280;63361;52.384;20.930;2024-02-28T22:49:20;101258.38;;;6.27;100.00
74834;BME280;63361;52.384;20.930;2024-02-28T22:51:45;101268.03;;;6.28;100.00
74834;BME280;63361;52.384;20.930;2024-02-28T22:54:12;101270.19;;;6.38;100.00
74834;BME280;63361;52.384;20.930;2024-02-28T22:56:42;101259.78;;;6.30;100.00
74834;BME280;63361;52.384;20.930;2024-02-28T22:59:07;101259.66;;;6.25;100.00
74834;BME280;63361;52.384;20.930;2024-02-28T23:01:33;101262.00;;;6.33;100.00
74834;BME280;63361;52.384;20.930;2024-02-28T23:03:58;101269.91;;;6.28;100.00
74834;BME280;63361;52.384;20.930;2024-02-28T23:06:23;101255.78;;;6.09;100.00
74834;BME280;63361;52.384;20.930;2024-02-28T23:08:49;101265.47;;;6.10;100.00
74834;BME280;63361;52.384;20.930;2024-02-28T23:11:15;101275.59;;;6.08;100.00
74834;BME280;63361;52.384;20.930;2024-02-28T23:13:41;101260.19;;;6.04;100.00
74834;BME280;63361;52.384;20.930;2024-02-28T23:16:06;101268.00;;;6.05;100.00
74834;BME280;63361;52.384;20.930;2024-02-28T23:18:33;101278.72;;;6.05;100.00
74834;BME280;63361;52.384;20.930;2024-02-28T23:20:58;101274.31;;;6.11;100.00
74834;BME280;63361;52.384;20.930;2024-02-28T23:23:24;101267.22;;;6.16;100.00
74834;BME280;63361;52.384;20.930;2024-02-28T23:25:49;101283.75;;;6.13;100.00
74834;BME280;63361;52.384;20.930;2024-02-28T23:28:14;101286.66;;;6.12;100.00
74834;BME280;63361;52.384;20.930;2024-02-28T23:30:40;101273.03;;;6.13;100.00
74834;BME280;63361;52.384;20.930;2024-02-28T23:33:05;101275.75;;;6.25;100.00
74834;BME280;63361;52.384;20.930;2024-02-28T23:35:35;101278.53;;;6.18;100.00
74834;BME280;63361;52.384;20.930;2024-02-28T23:38:04;101276.56;;;6.25;100.00
74834;BME280;63361;52.384;20.930;2024-02-28T23:40:30;101274.66;;;6.14;100.00
74834;BME280;63361;52.384;20.930;2024-02-28T23:42:56;101270.72;;;6.17;100.00
74834;BME280;63361;52.384;20.930;2024-02-28T23:45:21;101290.91;;;6.31;100.00
74834;BME280;63361;52.384;20.930;2024-02-28T23:47:46;101279.00;;;6.27;100.00
74834;BME280;63361;52.384;20.930;2024-02-28T23:50:12;101286.50;;;6.37;100.00
74834;BME280;63361;52.384;20.930;2024-02-28T23:52:37;101269.19;;;6.09;100.00
74834;BME280;63361;52.384;20.930;2024-02-28T23:55:03;101273.66;;;5.97;100.00
74834;BME280;63361;52.384;20.930;2024-02-28T23:57:29;101278.50;;;6.07;100.00
74834;BME280;63361;52.384;20.930;2024-02-28T23:59:54;101281.59;;;5.92;100.00
